Time;durP1;ratioP1;P1;durP2;ratioP2;P2;SDS_P1;SDS_P2;PMS_P1;PMS_P2;Temp;Humidity;BMP_temperature;BMP_pressure;BME280_temperature;BME280_humidity;BME280_pressure;Samples;Min_cycle;Max_cycle;Signal;HPM_P1;HPM_P2
2021/12/20 00:00:25;;;;;;;6.57;2.30;;;;;;;5.81;98.63;102713.66;5096125;28;20027;-67
2021/12/20 00:02:59;;;;;;;11.35;2.60;;;;;;;5.82;98.46;102713.56;5095941;28;20074;-66
2021/12/20 00:05:25;;;;;;;5.53;2.10;;;;;;;5.80;98.17;102712.00;5095961;28;20024;-67
2021/12/20 00:07:51;;;;;;;5.82;2.50;;;;;;;5.78;98.25;102711.25;5096241;28;20032;-66
2021/12/20 00:10:18;;;;;;;5.70;1.83;;;;;;;5.83;98.48;102717.03;5094963;28;20035;-66
2021/12/20 00:12:43;;;;;;;4.50;2.30;;;;;;;5.82;98.67;102710.06;5096039;28;20352;-66
2021/12/20 00:15:09;;;;;;;10.43;2.60;;;;;;;5.80;98.43;102706.69;5095838;28;20036;-67
2021/12/20 00:17:35;;;;;;;10.68;3.95;;;;;;;5.80;98.40;102715.47;5095878;28;20031;-66
2021/12/20 00:20:00;;;;;;;8.27;2.35;;;;;;;5.81;98.33;102719.78;5095454;28;20036;-66
2021/12/20 00:22:26;;;;;;;5.57;2.10;;;;;;;5.80;98.31;102710.19;5094358;28;20028;-67
2021/12/20 00:24:51;;;;;;;8.05;2.38;;;;;;;5.78;97.98;102709.44;5095876;28;20592;-66
2021/12/20 00:27:19;;;;;;;8.93;2.00;;;;;;;5.76;98.36;102705.22;5095732;28;20027;-66
2021/12/20 00:29:48;;;;;;;5.13;2.42;;;;;;;5.78;97.92;102708.63;5095678;28;20404;-66
2021/12/20 00:32:14;;;;;;;7.47;2.25;;;;;;;5.75;97.88;102703.56;5095725;28;20031;-66
2021/12/20 00:34:41;;;;;;;6.95;2.55;;;;;;;5.73;97.54;102701.03;5095144;28;20032;-66
2021/12/20 00:40:19;;;;;;;7.50;2.40;;;;;;;5.73;97.45;102706.31;5095168;28;20023;-66
2021/12/20 00:42:37;;;;;;;8.82;2.80;;;;;;;5.71;96.82;102700.28;5095672;28;20136;-67
2021/12/20 00:45:03;;;;;;;8.18;2.00;;;;;;;5.70;96.67;102696.81;5095358;28;20068;-66
2021/12/20 00:47:28;;;;;;;9.77;3.05;;;;;;;5.71;97.01;102708.22;5095425;28;20050;-66
2021/12/20 00:49:53;;;;;;;7.90;2.55;;;;;;;5.72;96.52;102704.66;5095379;28;20523;-66
2021/12/20 00:52:20;;;;;;;14.00;3.22;;;;;;;5.73;96.56;102706.31;5095282;28;20039;-66
2021/12/20 00:54:45;;;;;;;5.70;2.05;;;;;;;5.72;96.80;102702.84;5095266;28;20024;-67
2021/12/20 00:57:11;;;;;;;8.20;2.03;;;;;;;5.70;96.13;102701.25;5094980;28;20363;-67
2021/12/20 00:59:36;;;;;;;7.50;2.20;;;;;;;5.69;96.10;102707.53;5094073;28;20039;-66
2021/12/20 01:02:01;;;;;;;10.80;2.20;;;;;;;5.69;95.94;102702.22;5095021;28;20420;-67
2021/12/20 01:04:27;;;;;;;12.60;3.25;;;;;;;5.69;95.88;102707.53;5093690;28;20089;-66
2021/12/20 01:06:52;;;;;;;5.00;1.63;;;;;;;5.69;95.61;102711.00;5094544;28;20028;-67
2021/12/20 01:09:17;;;;;;;8.98;2.38;;;;;;;5.66;94.89;102698.03;5094967;28;20103;-66
2021/12/20 01:11:49;;;;;;;11.13;2.33;;;;;;;5.69;95.73;102707.53;5094886;28;20023;-67
2021/12/20 01:14:22;;;;;;;;;;;;;;;5.71;96.34;102703.81;5095408;28;20075;-67
2021/12/20 01:16:47;;;;;;;9.13;1.73;;;;;;;5.67;95.13;102697.03;5094851;28;20428;-66
2021/12/20 01:19:12;;;;;;;15.82;3.10;;;;;;;5.63;94.14;102692.09;5094822;28;20036;-67
2021/12/20 01:21:38;;;;;;;10.68;2.83;;;;;;;5.66;93.80;102695.38;5094612;28;20031;-67
2021/12/20 01:24:03;;;;;;;11.00;2.65;;;;;;;5.66;93.80;102700.66;5094533;28;20034;-66
2021/12/20 01:26:29;;;;;;;8.18;1.60;;;;;;;5.65;93.52;102696.31;5094579;28;20024;-66
2021/12/20 01:28:54;;;;;;;11.75;2.63;;;;;;;5.62;93.21;102691.25;5094507;28;20110;-67
2021/12/20 01:31:20;;;;;;;5.93;1.58;;;;;;;5.62;93.00;102699.22;5094367;28;20024;-66
2021/12/20 01:33:45;;;;;;;9.70;2.00;;;;;;;5.65;92.78;102706.91;5093498;28;20040;-67
2021/12/20 01:36:10;;;;;;;9.45;1.70;;;;;;;5.66;92.69;102715.72;5094314;28;20024;-66
2021/12/20 01:38:36;;;;;;;14.00;2.70;;;;;;;5.63;92.37;102702.69;5093166;28;20394;-66
2021/12/20 01:41:02;;;;;;;9.15;2.55;;;;;;;5.59;92.38;102691.50;5094370;28;20485;-66
2021/12/20 01:43:27;;;;;;;8.55;1.70;;;;;;;5.61;91.59;102692.25;5094292;28;20105;-66
2021/12/20 01:45:53;;;;;;;16.20;4.38;;;;;;;5.58;91.73;102695.13;5094295;28;20377;-67
2021/12/20 01:48:20;;;;;;;11.88;2.47;;;;;;;5.62;91.84;102691.25;5094291;28;20593;-67
2021/12/20 01:53:30;;;;;;;10.00;2.33;;;;;;;5.60;91.38;102692.34;5094211;28;20114;-67
2021/12/20 01:55:56;;;;;;;6.88;1.40;;;;;;;5.61;91.14;102692.25;5094094;28;20028;-67
2021/12/20 01:58:22;;;;;;;7.05;2.10;;;;;;;5.58;91.19;102688.97;5092761;28;20466;-67
2021/12/20 02:03:34;;;;;;;10.48;1.90;;;;;;;5.57;90.56;102690.78;5093838;28;20067;-67
2021/12/20 02:06:03;;;;;;;11.05;3.63;;;;;;;5.58;90.60;102691.63;5093808;28;20048;-67
2021/12/20 02:08:29;;;;;;;8.90;1.98;;;;;;;5.56;90.85;102688.25;5093049;28;20032;-67
2021/12/20 02:11:05;;;;;;;9.65;2.10;;;;;;;5.54;90.42;102683.06;5093734;28;20117;-67
2021/12/20 02:13:31;;;;;;;9.57;2.92;;;;;;;5.55;90.37;102684.75;5093750;28;20035;-67
2021/12/20 02:15:58;;;;;;;8.18;3.38;;;;;;;5.55;90.22;102690.03;5093778;28;20032;-67
2021/12/20 02:18:24;;;;;;;10.40;2.63;;;;;;;5.53;90.16;102693.78;5093720;28;20117;-67
2021/12/20 02:20:49;;;;;;;15.73;2.78;;;;;;;5.45;90.28;102678.50;5093520;28;20069;-67
2021/12/20 02:23:15;;;;;;;10.13;1.92;;;;;;;5.49;90.44;102680.78;5093585;28;20024;-67
2021/12/20 02:25:40;;;;;;;11.18;1.80;;;;;;;5.50;90.36;102684.25;5093571;28;20035;-67
2021/12/20 02:28:12;;;;;;;9.65;2.05;;;;;;;5.49;90.31;102690.53;5092300;28;20028;-67
2021/12/20 02:30:48;;;;;;;8.18;1.75;;;;;;;5.51;90.14;102685.97;5093600;28;20024;-67
2021/12/20 02:38:44;;;;;;;9.48;2.25;;;;;;;5.54;90.38;102684.88;5093379;28;20035;-67
2021/12/20 02:41:16;;;;;;;7.18;1.42;;;;;;;5.52;90.55;102687.63;5093312;28;20043;-67
2021/12/20 02:43:55;;;;;;;11.13;1.85;;;;;;;5.48;90.47;102680.91;5093172;28;20052;-67
2021/12/20 02:46:44;;;;;;;10.07;2.00;;;;;;;5.50;90.43;102678.97;5092444;28;20406;-67
2021/12/20 02:49:13;;;;;;;13.63;3.70;;;;;;;5.51;89.94;102674.53;5093253;28;20109;-67
2021/12/20 02:51:40;;;;;;;9.60;1.80;;;;;;;5.48;89.64;102678.28;5093186;28;20138;-67
2021/12/20 02:54:07;;;;;;;9.73;2.00;;;;;;;5.49;89.40;102682.59;5093186;28;20158;-67
2021/12/20 02:56:33;;;;;;;13.13;1.88;;;;;;;5.46;89.43;102674.88;5093109;28;20055;-67
2021/12/20 02:58:59;;;;;;;13.10;1.85;;;;;;;5.46;89.44;102678.38;5093104;28;20055;-67
2021/12/20 03:01:25;;;;;;;11.55;2.10;;;;;;;5.24;89.48;102642.16;5092972;28;20028;-67
2021/12/20 03:03:53;;;;;;;13.85;3.83;;;;;;;5.41;88.94;102675.25;5093381;28;20625;-67
2021/12/20 03:06:35;;;;;;;14.52;2.42;;;;;;;5.40;88.55;102676.22;5093051;28;20028;-67
2021/12/20 03:09:02;;;;;;;10.50;2.20;;;;;;;5.39;89.43;102677.16;5093067;28;20020;-67
2021/12/20 03:11:28;;;;;;;19.27;2.55;;;;;;;5.41;89.00;102682.34;5091790;28;20028;-67
2021/12/20 03:14:05;;;;;;;8.23;2.35;;;;;;;5.40;88.88;102683.31;5092939;28;20375;-67
2021/12/20 03:16:31;;;;;;;17.55;2.80;;;;;;;5.38;88.50;102682.56;5093030;28;20101;-67
2021/12/20 03:18:56;;;;;;;8.57;1.88;;;;;;;5.37;88.25;102680.88;5092980;28;20102;-67
2021/12/20 03:21:21;;;;;;;7.28;2.45;;;;;;;5.38;88.45;102677.28;5092824;28;20024;-66
2021/12/20 03:23:47;;;;;;;10.95;2.22;;;;;;;5.38;88.81;102685.22;5092866;28;20488;-67
2021/12/20 03:26:12;;;;;;;8.75;2.42;;;;;;;5.36;89.05;102677.38;5092482;28;20497;-67
2021/12/20 03:28:38;;;;;;;11.23;1.88;;;;;;;5.38;89.10;102682.56;5092825;28;20032;-67
2021/12/20 03:31:03;;;;;;;14.27;2.05;;;;;;;5.36;88.98;102677.38;5091519;28;20105;-67
2021/12/20 03:33:28;;;;;;;16.30;2.88;;;;;;;5.37;88.60;102679.09;5092813;28;20040;-67
2021/12/20 03:35:54;;;;;;;18.38;2.42;;;;;;;5.36;88.37;102666.81;5092854;28;20111;-67
2021/12/20 03:38:19;;;;;;;12.27;1.88;;;;;;;5.35;88.17;102675.72;5092760;28;20101;-67
2021/12/20 03:40:45;;;;;;;14.32;3.22;;;;;;;5.37;88.24;102680.88;5092661;28;20374;-67
2021/12/20 03:43:12;;;;;;;10.07;1.83;;;;;;;5.36;87.97;102679.19;5092352;28;20136;-67
2021/12/20 03:45:38;;;;;;;8.48;1.88;;;;;;;5.34;88.07;102678.47;5092701;28;20024;-67
2021/12/20 03:48:03;;;;;;;12.88;2.28;;;;;;;5.36;88.29;102668.63;5092713;28;20382;-67
2021/12/20 03:50:29;;;;;;;16.90;3.75;;;;;;;5.32;88.36;102670.66;5092672;28;20111;-67
2021/12/20 03:52:54;;;;;;;12.85;3.13;;;;;;;5.34;88.20;102675.81;5092641;28;20103;-67
2021/12/20 03:55:19;;;;;;;7.30;2.10;;;;;;;5.34;88.31;102678.47;5092516;28;20028;-67
2021/12/20 03:57:45;;;;;;;20.75;3.88;;;;;;;5.34;87.87;102673.19;5094439;28;20448;-67
2021/12/20 04:00:13;;;;;;;13.18;3.80;;;;;;;5.32;87.68;102673.31;5096249;28;20035;-67
2021/12/20 04:02:43;;;;;;;7.15;2.92;;;;;;;5.32;87.57;102670.66;5096316;28;20395;-67
2021/12/20 04:05:10;;;;;;;11.35;2.58;;;;;;;5.33;87.22;102669.69;5096235;28;20101;-67
2021/12/20 04:07:35;;;;;;;9.15;2.38;;;;;;;5.33;86.83;102675.00;5096227;28;20379;-67
2021/12/20 04:10:02;;;;;;;13.15;2.05;;;;;;;5.34;86.38;102667.88;5095684;28;20028;-67
2021/12/20 04:12:27;;;;;;;7.72;2.75;;;;;;;5.34;86.39;102666.06;5096113;28;20089;-67
2021/12/20 04:14:53;;;;;;;20.25;4.45;;;;;;;5.33;86.03;102663.56;5096040;28;20028;-67
2021/12/20 04:17:18;;;;;;;9.68;2.08;;;;;;;5.34;85.38;102673.19;5096043;28;20064;-67
2021/12/20 04:19:44;;;;;;;12.45;3.20;;;;;;;5.35;85.73;102664.31;5095910;28;20036;-67
2021/12/20 04:22:09;;;;;;;12.27;2.72;;;;;;;5.35;86.19;102669.59;5095871;28;20475;-67
2021/12/20 04:24:34;;;;;;;15.32;2.08;;;;;;;5.34;85.98;102668.72;5095844;28;20089;-67
2021/12/20 04:27:00;;;;;;;7.93;2.42;;;;;;;5.34;85.92;102670.53;5095820;28;20077;-67
2021/12/20 04:29:28;;;;;;;11.75;2.50;;;;;;;5.32;85.77;102675.97;5095824;28;20494;-66
2021/12/20 04:31:53;;;;;;;16.27;2.05;;;;;;;5.31;86.49;102668.13;5095551;28;20421;-67
2021/12/20 04:34:19;;;;;;;9.70;2.20;;;;;;;5.26;86.60;102669.31;5094500;28;20034;-67
2021/12/20 04:36:45;;;;;;;7.10;2.05;;;;;;;5.25;86.92;102666.78;5095578;28;20031;-67
2021/12/20 04:39:15;;;;;;;14.52;3.80;;;;;;;5.22;86.40;102665.22;5095462;28;20027;-67
2021/12/20 04:41:40;;;;;;;11.88;2.05;;;;;;;5.25;86.63;102667.63;5094377;28;20490;-67
2021/12/20 04:44:06;;;;;;;17.90;3.13;;;;;;;5.25;86.27;102662.34;5095368;28;20048;-67
2021/12/20 04:46:31;;;;;;;12.98;2.53;;;;;;;5.26;86.34;102669.31;5093614;28;20050;-67
2021/12/20 04:48:56;;;;;;;10.00;2.50;;;;;;;5.28;86.53;102677.97;5094887;28;20498;-67
2021/12/20 04:51:22;;;;;;;14.13;2.63;;;;;;;5.22;86.27;102667.03;5095300;28;20066;-66
2021/12/20 04:53:47;;;;;;;13.55;2.38;;;;;;;5.24;85.39;102671.25;5095133;28;20028;-67
2021/12/20 04:56:13;;;;;;;15.43;2.85;;;;;;;5.28;86.05;102679.78;5095364;28;20459;-67
2021/12/20 04:58:38;;;;;;;11.00;2.63;;;;;;;5.26;86.14;102671.94;5095277;28;20024;-67
2021/12/20 05:01:05;;;;;;;17.95;3.95;;;;;;;5.26;85.99;102676.41;5094999;28;20032;-67
2021/12/20 05:03:30;;;;;;;10.85;2.08;;;;;;;5.25;85.98;102678.22;5093846;28;20395;-67
2021/12/20 05:05:56;;;;;;;18.77;2.03;;;;;;;5.22;85.76;102672.31;5093916;28;20039;-67
2021/12/20 05:08:21;;;;;;;15.05;3.67;;;;;;;5.24;85.23;102678.34;5094272;28;20032;-67
2021/12/20 05:10:46;;;;;;;11.10;1.90;;;;;;;5.25;85.15;102680.03;5094678;28;20079;-67
2021/12/20 05:13:13;;;;;;;15.68;3.20;;;;;;;5.23;83.68;102682.78;5094782;28;20382;-67
2021/12/20 05:15:39;;;;;;;8.10;2.25;;;;;;;5.25;84.18;102685.31;5095008;28;20024;-67
2021/12/20 05:18:06;;;;;;;12.10;4.32;;;;;;;5.24;84.80;102688.94;5094872;28;20036;-66
2021/12/20 05:20:32;;;;;;;9.20;2.17;;;;;;;5.24;85.12;102684.47;5094770;28;20171;-67
2021/12/20 05:22:59;;;;;;;8.05;2.55;;;;;;;5.24;84.92;102684.47;5094702;28;20081;-67
2021/12/20 05:25:25;;;;;;;12.07;2.13;;;;;;;5.22;84.37;102683.75;5094760;28;20028;-67
2021/12/20 05:27:51;;;;;;;10.90;2.78;;;;;;;5.20;83.63;102690.94;5094716;28;20032;-67
2021/12/20 05:30:17;;;;;;;14.30;3.58;;;;;;;5.21;84.77;102689.13;5094676;28;20032;-67
2021/12/20 05:32:43;;;;;;;12.43;3.72;;;;;;;5.17;83.95;102688.53;5094761;28;20028;-67
2021/12/20 05:35:10;;;;;;;17.13;2.50;;;;;;;5.12;83.46;102685.38;5094566;28;20119;-67
2021/12/20 05:37:36;;;;;;;18.98;2.80;;;;;;;5.17;84.59;102687.69;5094443;28;20164;-67
2021/12/20 05:40:06;;;;;;;18.85;4.10;;;;;;;5.17;84.32;102695.63;5094452;28;20475;-67
2021/12/20 05:42:31;;;;;;;6.95;2.13;;;;;;;5.13;84.51;102692.34;5094313;28;20115;-67
2021/12/20 05:44:57;;;;;;;9.65;2.28;;;;;;;5.13;84.65;102681.78;5093961;28;20144;-67
2021/12/20 05:47:22;;;;;;;9.50;2.33;;;;;;;5.12;83.71;102695.97;5094365;28;20036;-66
2021/12/20 05:49:49;;;;;;;7.15;2.78;;;;;;;5.14;82.42;102688.78;5094132;28;20070;-67
2021/12/20 05:52:14;;;;;;;6.57;1.38;;;;;;;5.15;83.29;102692.25;5094115;28;20032;-67
2021/12/20 05:54:40;;;;;;;14.20;3.22;;;;;;;5.16;82.12;102691.28;5094112;28;20035;-66
2021/12/20 05:57:05;;;;;;;8.73;1.67;;;;;;;5.16;82.15;102691.28;5092337;28;20020;-67
2021/12/20 05:59:31;;;;;;;21.42;3.28;;;;;;;5.16;82.99;102700.09;5094074;28;20497;-67
2021/12/20 06:01:56;;;;;;;13.90;1.88;;;;;;;5.14;82.41;102690.59;5093791;28;20024;-67
2021/12/20 06:04:22;;;;;;;14.02;2.05;;;;;;;5.10;82.87;102684.66;5093932;28;20100;-67
2021/12/20 06:06:47;;;;;;;11.20;3.83;;;;;;;5.12;83.09;102690.69;5093873;28;20039;-67
2021/12/20 06:09:13;;;;;;;12.40;1.98;;;;;;;5.12;83.64;102697.78;5093921;28;20054;-67
2021/12/20 06:11:38;;;;;;;12.60;2.67;;;;;;;5.04;83.50;102680.69;5093662;28;20046;-67
2021/12/20 06:14:04;;;;;;;7.30;2.95;;;;;;;5.09;82.20;102695.38;5093020;28;20032;-67
2021/12/20 06:16:29;;;;;;;9.38;1.70;;;;;;;5.07;81.48;102697.28;5093687;28;20069;-67
2021/12/20 06:18:54;;;;;;;18.05;2.63;;;;;;;5.02;80.49;102687.03;5092585;28;20081;-67
2021/12/20 06:21:21;;;;;;;20.42;3.13;;;;;;;5.10;80.33;102692.59;5093451;28;20030;-67
2021/12/20 06:23:46;;;;;;;8.10;2.58;;;;;;;5.09;80.16;102688.28;5093673;28;20471;-67
2021/12/20 06:26:12;;;;;;;15.10;2.00;;;;;;;5.12;79.59;102692.50;5093592;28;20024;-67
2021/12/20 06:28:38;;;;;;;12.93;2.45;;;;;;;5.12;78.75;102703.06;5093509;28;20482;-67
2021/12/20 06:31:03;;;;;;;13.98;2.97;;;;;;;5.15;79.16;102706.31;5093537;28;20077;-67
2021/12/20 06:33:29;;;;;;;5.68;2.75;;;;;;;5.10;77.21;102692.59;5093694;28;20031;-67
2021/12/20 06:35:54;;;;;;;7.78;1.42;;;;;;;5.11;77.00;102694.28;5093054;28;20053;-67
2021/12/20 06:38:21;;;;;;;13.98;2.42;;;;;;;5.13;76.31;102689.72;5093210;28;20490;-67
2021/12/20 06:40:51;;;;;;;6.93;3.40;;;;;;;5.17;76.90;102696.47;5093211;28;20020;-67
2021/12/20 06:43:17;;;;;;;5.80;1.75;;;;;;;5.17;77.70;102704.41;5093213;28;20099;-67
2021/12/20 06:45:43;;;;;;;6.78;1.30;;;;;;;5.17;76.43;102709.69;5093069;28;20131;-67
2021/12/20 06:48:08;;;;;;;10.50;2.75;;;;;;;5.17;77.49;102709.69;5093219;28;20537;-67
2021/12/20 06:50:34;;;;;;;12.05;2.88;;;;;;;5.18;75.52;102705.25;5093172;28;20024;-67
2021/12/20 06:52:59;;;;;;;10.75;1.90;;;;;;;5.18;76.54;102710.53;5093186;28;20028;-66
2021/12/20 06:55:24;;;;;;;4.63;1.33;;;;;;;5.20;77.35;102716.56;5093173;28;20028;-66
2021/12/20 06:57:51;;;;;;;8.15;2.42;;;;;;;5.17;78.27;102717.63;5093176;28;20046;-66
2021/12/20 07:00:16;;;;;;;10.02;1.42;;;;;;;5.13;78.11;102721.44;5093082;28;20028;-67
2021/12/20 07:02:42;;;;;;;13.27;2.00;;;;;;;5.08;78.55;102718.31;5093208;28;20085;-66
2021/12/20 07:05:08;;;;;;;11.57;2.50;;;;;;;5.09;77.68;102727.94;5091793;28;20028;-66
2021/12/20 07:07:34;;;;;;;13.50;3.20;;;;;;;5.11;78.59;102727.81;5092620;28;20432;-67
2021/12/20 07:10:00;;;;;;;12.40;2.25;;;;;;;5.09;78.57;102730.59;5093050;28;20040;-68
2021/12/20 07:12:27;;;;;;;14.30;1.80;;;;;;;5.03;79.02;102717.81;5093023;28;20021;-66
2021/12/20 07:14:52;;;;;;;9.45;2.25;;;;;;;5.08;79.56;102720.13;5092643;28;20055;-66
2021/12/20 07:17:19;;;;;;;4.45;1.85;;;;;;;5.05;79.15;102723.81;5092774;28;20569;-66
2021/12/20 07:19:45;;;;;;;13.98;3.70;;;;;;;5.04;79.47;102730.91;5092858;28;20379;-66
2021/12/20 07:22:10;;;;;;;6.07;1.58;;;;;;;4.98;79.49;102725.25;5092850;28;20024;-66
2021/12/20 07:24:36;;;;;;;10.38;2.15;;;;;;;5.03;79.50;102733.66;5091637;28;20035;-66
2021/12/20 07:27:01;;;;;;;14.38;3.83;;;;;;;5.01;79.63;102730.31;5092731;28;20494;-66
2021/12/20 07:29:26;;;;;;;13.25;3.10;;;;;;;4.97;79.80;102727.03;5092400;28;20036;-66
2021/12/20 07:31:52;;;;;;;10.90;2.42;;;;;;;4.99;80.35;102726.94;5071300;28;20214;-67
2021/12/20 07:34:17;;;;;;;14.15;3.20;;;;;;;5.02;80.56;102732.84;5073480;28;20483;-66
2021/12/20 07:36:43;;;;;;;8.63;1.70;;;;;;;5.00;81.59;102731.25;5073488;28;20998;-66
2021/12/20 07:39:08;;;;;;;9.02;2.10;;;;;;;4.99;81.89;102726.94;5073596;28;20040;-67
2021/12/20 07:41:34;;;;;;;5.85;1.50;;;;;;;4.97;82.40;102732.31;5073320;28;20471;-67
2021/12/20 07:43:59;;;;;;;12.73;1.98;;;;;;;4.95;83.27;102723.69;5071632;28;20059;-66
2021/12/20 07:46:25;;;;;;;8.93;2.47;;;;;;;4.98;83.10;102733.19;5073394;28;20043;-66
2021/12/20 07:48:51;;;;;;;9.98;2.38;;;;;;;4.98;83.14;102734.03;5071943;28;20218;-67
2021/12/20 07:51:17;;;;;;;11.70;3.60;;;;;;;4.96;81.92;102732.47;5073311;28;20101;-66
2021/12/20 07:53:43;;;;;;;7.35;1.90;;;;;;;4.97;82.11;102734.97;5073191;28;20047;-66
2021/12/20 07:56:09;;;;;;;14.65;3.92;;;;;;;4.97;82.86;102731.50;5073257;28;20026;-67
2021/12/20 07:58:35;;;;;;;15.80;2.22;;;;;;;4.97;82.88;102734.13;5073199;28;20024;-66
2021/12/20 08:01:01;;;;;;;8.85;1.88;;;;;;;4.99;83.19;102733.06;5072992;28;20074;-66
2021/12/20 08:03:28;;;;;;;5.65;2.15;;;;;;;5.01;82.73;102732.97;5092406;28;20059;-66
2021/12/20 08:05:53;;;;;;;13.80;1.83;;;;;;;4.95;82.69;102728.97;5091173;28;20028;-66
2021/12/20 08:08:19;;;;;;;8.55;1.77;;;;;;;5.01;83.39;102746.19;5092372;28;20030;-66
2021/12/20 08:10:44;;;;;;;11.95;2.08;;;;;;;4.95;82.96;102736.91;5092054;28;20032;-66
2021/12/20 08:13:11;;;;;;;18.83;2.65;;;;;;;4.98;81.73;102735.84;5091494;28;20081;-66
2021/12/20 08:15:37;;;;;;;15.15;4.05;;;;;;;5.00;83.24;102733.91;5092092;28;20097;-66
2021/12/20 08:18:02;;;;;;;13.52;2.67;;;;;;;5.02;81.84;102745.22;5091680;28;20032;-66
2021/12/20 08:20:28;;;;;;;13.98;2.10;;;;;;;5.06;82.41;102741.41;5092089;28;20036;-66
2021/12/20 08:22:53;;;;;;;8.02;1.85;;;;;;;5.09;84.23;102757.03;5091735;28;20028;-66
2021/12/20 08:25:19;;;;;;;13.43;2.72;;;;;;;5.07;83.88;102751.00;5090611;28;20043;-66
2021/12/20 08:27:46;;;;;;;12.13;2.78;;;;;;;5.10;83.79;102757.88;5091974;28;20391;-67
2021/12/20 08:30:12;;;;;;;9.77;3.05;;;;;;;5.11;84.07;102754.25;5092031;28;20059;-66
2021/12/20 08:32:38;;;;;;;8.95;2.13;;;;;;;5.01;82.15;102739.09;5095503;28;20459;-66
2021/12/20 08:35:05;;;;;;;3.70;1.50;;;;;;;5.12;82.44;102758.59;5095742;28;20030;-66
2021/12/20 08:37:31;;;;;;;21.00;3.45;;;;;;;5.14;81.45;102759.34;5095627;28;20055;-66
2021/12/20 08:39:56;;;;;;;8.50;2.65;;;;;;;5.11;81.47;102749.84;5095541;28;20074;-67
2021/12/20 08:42:22;;;;;;;10.65;2.70;;;;;;;5.12;81.94;102748.88;5094991;28;20043;-66
2021/12/20 08:44:49;;;;;;;7.70;2.20;;;;;;;5.16;83.45;102755.63;5094205;28;20051;-66
2021/12/20 08:47:15;;;;;;;14.25;1.90;;;;;;;5.17;82.93;102757.31;5095496;28;20437;-66
2021/12/20 08:49:41;;;;;;;13.63;3.03;;;;;;;5.23;83.35;102761.28;5095455;28;20028;-66
2021/12/20 08:52:06;;;;;;;6.47;1.90;;;;;;;5.21;83.77;102747.31;5095432;28;20076;-66
2021/12/20 08:54:31;;;;;;;9.02;1.95;;;;;;;5.26;84.10;102753.13;5095236;28;20028;-66
2021/12/20 08:56:57;;;;;;;9.82;3.40;;;;;;;5.28;84.03;102756.50;5095477;28;20031;-68
2021/12/20 08:59:23;;;;;;;12.23;3.28;;;;;;;5.23;82.43;102748.06;5095299;28;20021;-65
2021/12/20 09:01:49;;;;;;;11.40;2.80;;;;;;;5.32;81.93;102759.75;5095050;28;20036;-67
2021/12/20 09:04:15;;;;;;;17.33;2.70;;;;;;;5.27;82.44;102752.19;5095096;28;20074;-67
2021/12/20 09:06:42;;;;;;;12.68;3.25;;;;;;;5.34;83.37;102757.84;5094958;28;20077;-67
2021/12/20 09:09:10;;;;;;;12.32;3.00;;;;;;;5.37;82.08;102757.59;5095123;28;20046;-67
2021/12/20 09:11:36;;;;;;;11.65;2.30;;;;;;;5.39;81.72;102759.19;5094895;28;20024;-67
2021/12/20 09:14:02;;;;;;;12.50;2.25;;;;;;;5.43;83.02;102762.44;5093737;28;20028;-67
2021/12/20 09:16:27;;;;;;;15.15;3.03;;;;;;;5.45;82.26;102761.38;5094675;28;20032;-67
2021/12/20 09:18:53;;;;;;;7.60;2.45;;;;;;;5.46;82.76;102768.34;5093197;28;20024;-67
2021/12/20 09:21:18;;;;;;;7.63;2.38;;;;;;;5.46;82.83;102768.34;5094175;28;20103;-67
2021/12/20 09:23:44;;;;;;;17.85;2.90;;;;;;;5.47;82.78;102772.66;5094246;28;20107;-67
2021/12/20 09:26:10;;;;;;;15.45;3.88;;;;;;;5.46;82.52;102776.28;5094465;28;20063;-67
2021/12/20 09:28:36;;;;;;;13.00;2.88;;;;;;;5.50;82.02;102774.25;5094141;28;20051;-67
2021/12/20 09:31:03;;;;;;;12.15;2.30;;;;;;;5.49;82.48;102767.28;5093196;28;20063;-67
2021/12/20 09:33:29;;;;;;;14.93;2.90;;;;;;;5.50;83.18;102774.25;5094601;28;20024;-67
2021/12/20 09:35:54;;;;;;;20.05;4.05;;;;;;;5.54;82.54;102780.16;5094546;28;20028;-67
2021/12/20 09:38:21;;;;;;;11.93;3.50;;;;;;;5.54;81.98;102780.16;5094445;28;20024;-67
2021/12/20 09:43:55;;;;;;;9.73;3.08;;;;;;;5.55;82.00;102787.13;5094076;28;20028;-67
2021/12/20 09:46:24;;;;;;;13.02;3.28;;;;;;;5.55;81.83;102784.47;5094155;28;20028;-67
2021/12/20 09:48:50;;;;;;;9.85;2.22;;;;;;;5.56;81.63;102780.91;5094276;28;20059;-67
2021/12/20 09:51:17;;;;;;;7.47;2.63;;;;;;;5.57;81.32;102794.00;5094196;28;20052;-67
2021/12/20 09:53:43;;;;;;;12.52;3.33;;;;;;;5.55;81.71;102793.25;5093894;28;20364;-69
2021/12/20 09:56:09;;;;;;;12.13;2.17;;;;;;;5.57;82.09;102786.06;5093958;28;20036;-66
2021/12/20 09:58:39;;;;;;;11.23;2.85;;;;;;;5.59;81.38;102793.91;5094007;28;20032;-67
2021/12/20 10:01:07;;;;;;;7.88;2.95;;;;;;;5.59;81.96;102786.78;5093748;28;20024;-67
2021/12/20 10:03:35;;;;;;;8.07;2.55;;;;;;;5.64;82.11;102795.22;5093913;28;20067;-67
2021/12/20 10:06:01;;;;;;;13.98;2.85;;;;;;;5.66;81.33;102795.97;5093797;28;20036;-66
2021/12/20 10:08:35;;;;;;;9.73;2.33;;;;;;;5.67;80.83;102795.00;5093725;28;20028;-67
2021/12/20 10:11:17;;;;;;;6.70;2.75;;;;;;;5.70;82.01;102797.41;5093219;28;20095;-67
2021/12/20 10:13:43;;;;;;;10.10;3.10;;;;;;;5.73;80.68;102791.03;5093496;28;20023;-67
2021/12/20 10:16:20;;;;;;;13.57;3.22;;;;;;;5.75;81.00;102796.22;5093617;28;20043;-66
2021/12/20 10:18:47;;;;;;;15.88;2.78;;;;;;;5.77;81.06;102796.97;5093449;28;20032;-67
2021/12/20 10:21:13;;;;;;;12.65;3.00;;;;;;;5.79;81.84;102798.53;5092857;28;20487;-67
2021/12/20 10:23:41;;;;;;;13.18;2.58;;;;;;;5.83;80.43;102801.78;5093066;28;20120;-67
2021/12/20 10:26:13;;;;;;;7.22;2.83;;;;;;;5.82;80.12;102800.94;5093542;28;20403;-67
2021/12/20 10:28:39;;;;;;;15.20;5.20;;;;;;;5.83;80.81;102794.66;5093525;28;20020;-67
2021/12/20 10:31:09;;;;;;;17.67;3.40;;;;;;;5.84;80.47;102800.81;5093381;28;20077;-67
2021/12/20 10:33:35;;;;;;;13.38;2.40;;;;;;;5.84;80.44;102796.38;5093470;28;20036;-67
2021/12/20 10:36:13;;;;;;;11.77;2.10;;;;;;;5.92;79.47;102791.31;5093463;28;20154;-67
2021/12/20 10:38:44;;;;;;;16.20;4.50;;;;;;;5.90;80.16;102797.69;5093388;28;20543;-67
2021/12/20 10:41:19;;;;;;;10.13;2.95;;;;;;;5.88;79.83;102789.03;5092059;28;20042;-67
2021/12/20 10:43:52;;;;;;;20.15;3.95;;;;;;;5.86;79.76;102789.13;5093167;28;20040;-68
2021/12/20 10:46:21;;;;;;;11.20;2.90;;;;;;;5.86;80.28;102790.94;5093214;28;20050;-67
2021/12/20 10:49:14;;;;;;;11.63;2.35;;;;;;;5.83;80.80;102792.03;5093096;28;20503;-67
2021/12/20 10:51:45;;;;;;;12.35;2.35;;;;;;;5.88;81.06;102799.63;5092946;28;20099;-67
2021/12/20 10:54:15;;;;;;;13.02;3.67;;;;;;;5.90;80.54;102792.41;5093140;28;20391;-67
2021/12/20 10:56:51;;;;;;;10.93;2.55;;;;;;;5.91;79.55;102794.09;5093131;28;20032;-67
2021/12/20 10:59:21;;;;;;;8.32;2.85;;;;;;;5.89;80.06;102793.34;5093068;28;20032;-67
2021/12/20 11:04:36;;;;;;;9.82;2.55;;;;;;;5.91;80.60;102786.13;5092779;28;20544;-67
2021/12/20 11:09:39;;;;;;;13.80;3.50;;;;;;;5.97;80.59;102783.03;5093072;28;20036;-67
2021/12/20 11:12:07;;;;;;;14.05;2.45;;;;;;;6.02;80.03;102786.16;5092846;28;20043;-67
2021/12/20 11:14:36;;;;;;;9.23;2.10;;;;;;;6.02;79.77;102780.88;5092906;28;20087;-67
2021/12/20 11:17:05;;;;;;;12.98;2.40;;;;;;;6.05;80.58;102780.66;5092816;28;20016;-66
2021/12/20 11:19:38;;;;;;;15.18;3.83;;;;;;;6.16;81.04;102790.41;5092846;28;20050;-67
2021/12/20 11:22:05;;;;;;;9.70;3.97;;;;;;;6.21;80.16;102780.31;5092888;28;20050;-67
2021/12/20 11:24:46;;;;;;;15.75;3.00;;;;;;;6.18;78.67;102769.94;5092447;28;20042;-67
2021/12/20 11:27:21;;;;;;;14.90;3.63;;;;;;;6.24;78.37;102779.22;5091494;28;20076;-67
2021/12/20 11:29:49;;;;;;;14.77;3.60;;;;;;;6.22;78.17;102781.16;5092654;28;20799;-67
2021/12/20 11:32:17;;;;;;;9.38;2.47;;;;;;;6.23;79.31;102782.81;5091413;28;20073;-66
2021/12/20 11:34:44;;;;;;;15.38;2.33;;;;;;;6.25;79.75;102778.25;5092698;28;20103;-67
2021/12/20 11:37:16;;;;;;;12.00;2.85;;;;;;;6.21;78.20;102764.41;5092649;28;20028;-67
2021/12/20 11:39:42;;;;;;;14.98;3.53;;;;;;;6.26;77.62;102770.19;5092650;28;20027;-66
2021/12/20 11:42:08;;;;;;;13.10;2.95;;;;;;;6.26;77.93;102769.31;5092630;28;20032;-67
2021/12/20 11:44:36;;;;;;;12.93;2.95;;;;;;;6.25;77.44;102770.31;5092421;28;20044;-68
2021/12/20 11:47:07;;;;;;;14.23;4.13;;;;;;;6.28;77.39;102778.00;5092782;28;20024;-67
2021/12/20 11:49:33;;;;;;;13.20;3.28;;;;;;;6.35;78.32;102774.75;5092736;28;20073;-67